LAN - Capital Region Intl

Pirep is a free, collaborative database of all public and private airports located within the United States. All pilots are welcome to contribute, edit, and improve any airport they have local knowledge about, no registration required.
Uploaded photos will be licensed under a CC BY-SA 4.0 license. Please only upload photos you have the rights to use.
Tags
Public
METAR / TAF
Flying Clubs
Edit Tags
Food
Camping
Lodging
Car Rental
Bicycles
Swimming
Golfing
Fishing
Hot Springs
Museum
Airpark
Upcoming Events
No upcoming events. Is anything happening here soon?
*
*
*

Where exactly on/near the airport is this event taking place?

Is there a webpage with more information for this event?

Who should be contacted for more information?

What is this event all about?

Repeat every
Description
Transient Parking
Fuel Location
Landing & Tie-down Fees
Crew Car Availability
Flying Clubs
Last updated: 2024-02-19 19:46:58 EST
WiFi Access
Airport Statistics
Location: Lansing, MI
Elevation: 860ft
Sectional: Detroit
Activation date: Apr 1940
Fuel: 100LL, A (prices)
Runway 10R/28L: 8,506ft
Runway 06/24: 5,003ft
Runway 10L/28R: 3,601ft
Access: Open to the public
Current Weather — VFR
  • Weather data is strictly informational and not for flight planning purposes.
  • METAR
    2024-05-26 05:53:00 EDT
    Ceiling Wind Temperature Dewpoint Weather Visbility
    Sky clear Calm 50°F 48°F N/A 10SM
    Raw: KLAN 260953Z 00000KT 10SM CLR 10/09 A2988 RMK AO2 SLP116 T01000089
  • TAF
    2024-05-26 02:00:00 EDT – 2024-05-26 11:00:00 EDT
    Ceiling Wind Weather Visbility
    Sky clear 110° @ 6kt N/A 6SM
    Clouds: Scattered @ 25,000ft
    Raw: KLAN 260540Z 2606/2706 11006KT P6SM SCT250 FM261500 13010KT P6SM BKN150 FM262200 15014G26KT P6SM -SHRA OVC100 FM270000 13011G22KT P6SM -SHRA BKN090 FM270300 13010G22KT P6SM -SHRA BKN040 FM270400 15010G21KT P6SM -SHRA BKN020
  • TAF
    2024-05-26 11:00:00 EDT – 2024-05-26 18:00:00 EDT
    Ceiling Wind Weather Visbility
    15,000ft 130° @ 10kt N/A 6SM
    Clouds: Broken @ 15,000ft
    Raw: KLAN 260540Z 2606/2706 11006KT P6SM SCT250 FM261500 13010KT P6SM BKN150 FM262200 15014G26KT P6SM -SHRA OVC100 FM270000 13011G22KT P6SM -SHRA BKN090 FM270300 13010G22KT P6SM -SHRA BKN040 FM270400 15010G21KT P6SM -SHRA BKN020
  • TAF
    2024-05-26 18:00:00 EDT – 2024-05-26 20:00:00 EDT
    Ceiling Wind Weather Visbility
    10,000ft 150° @ 14kt, gusts 26kt Light rain showers 6SM
    Clouds: Overcast @ 10,000ft
    Raw: KLAN 260540Z 2606/2706 11006KT P6SM SCT250 FM261500 13010KT P6SM BKN150 FM262200 15014G26KT P6SM -SHRA OVC100 FM270000 13011G22KT P6SM -SHRA BKN090 FM270300 13010G22KT P6SM -SHRA BKN040 FM270400 15010G21KT P6SM -SHRA BKN020
  • TAF
    2024-05-26 20:00:00 EDT – 2024-05-26 23:00:00 EDT
    Ceiling Wind Weather Visbility
    9,000ft 130° @ 11kt, gusts 22kt Light rain showers 6SM
    Clouds: Broken @ 9,000ft
    Raw: KLAN 260540Z 2606/2706 11006KT P6SM SCT250 FM261500 13010KT P6SM BKN150 FM262200 15014G26KT P6SM -SHRA OVC100 FM270000 13011G22KT P6SM -SHRA BKN090 FM270300 13010G22KT P6SM -SHRA BKN040 FM270400 15010G21KT P6SM -SHRA BKN020
  • TAF
    2024-05-26 23:00:00 EDT – 2024-05-27 00:00:00 EDT
    Ceiling Wind Weather Visbility
    4,000ft 130° @ 10kt, gusts 22kt Light rain showers 6SM
    Clouds: Broken @ 4,000ft
    Raw: KLAN 260540Z 2606/2706 11006KT P6SM SCT250 FM261500 13010KT P6SM BKN150 FM262200 15014G26KT P6SM -SHRA OVC100 FM270000 13011G22KT P6SM -SHRA BKN090 FM270300 13010G22KT P6SM -SHRA BKN040 FM270400 15010G21KT P6SM -SHRA BKN020
  • TAF
    2024-05-27 00:00:00 EDT – 2024-05-27 02:00:00 EDT
    Ceiling Wind Weather Visbility
    2,000ft 150° @ 10kt, gusts 21kt Light rain showers 6SM
    Clouds: Broken @ 2,000ft
    Raw: KLAN 260540Z 2606/2706 11006KT P6SM SCT250 FM261500 13010KT P6SM BKN150 FM262200 15014G26KT P6SM -SHRA OVC100 FM270000 13011G22KT P6SM -SHRA BKN090 FM270300 13010G22KT P6SM -SHRA BKN040 FM270400 15010G21KT P6SM -SHRA BKN020
Click/tap to add an annotation marker to the map
Airport Webcams
No webcams added yet.
Direct links to live image URLs will be displayed inline on this page. URLs to separate webpages will be linked to.
URL:
Direct links to live image URLs will be displayed inline on this page. URLs to separate webpages will be linked to.
URL:
Remarks
  • Dtrmn pending.
  • Arff index c/d avbl on req ctc arpt ops at 517-321-8525.
  • Birds on & invof arpt.
  • Rwy 06/24 300 ft safety area each end.
  • Intl arrivals accepted up to 200 pax. please ctc cbp fis at 517-327-1052 for addnl info.
Comments
Leave a comment What was your experience like at this airport?